Tuesday, July 29, 2014
16:56 UTC
  |  Log In   |  Register Free
Airport Search:

Livermore Municipal Airport
(KLVK)

Livermore Municipal Airport Diagram
No Airport Diagram Available

FAA data valid effective July 24, 2014 until September 18, 2014 (unless otherwise noted).

 
 
 
 
 
 
 
 
 
 
 
 
 
 

Current Aviation Weather for Livermore Municipal Airport (KLVK)

The most recent METAR observation for KLVK was updated at: 1753 UTC
METAR Summary (Translated METAR)
KLVK
281753Z 28004KT 10SM CLR 26/13 A3002 RMK AO2 SLP161 T02610133 10261 20161 50002
KHWD
(14.5 nm SW from KLVK)
281754Z 29007KT 10SM CLR 19/16 A3005 RMK AO2 SLP184 T01940156 10211 20161 50005
TAF Summary (Translated TAF)
KOAK
(19.1 nm NW from KLVK)
291439Z 2915/3018 34003KT P6SM BKN012 BKN180 FM291700 29006KT P6SM FEW008 SCT150 FM292000 29014KT P6SM SCT150 FM300400 29008KT P6SM SKC FM300900 31005KT P6SM SCT010 FM301100 27005KT P6SM BKN010
  Airport Weather Conditions for KLVK

 Current Weather at LVK
73° F
Fair
North winds at 0.0 mph
LVK NOAA Radar

Pressure: 30.04 in
Humidity: 59%
Wind: Calm
Dew Point: 57.9°F
Visibility: 10.00 mi


Airport Weather Forecast for KLVK

Translated METAR and TAF for KLVK
Translated METAR for KLVK (1649 UTC 29 July 2014)
found at http://aviationweather.gov/adds/metars/
 
METAR text: KLVK 291553Z 00000KT 10SM CLR 23/14 A3004 RMK AO2 SLP168 T02280144
Conditions at: KLVK (LIVERMORE , CA, US) observed 1553 UTC 29 July 2014
Temperature: 22.8°C (73°F)
Dewpoint: 14.4°C (58°F) [RH = 59%]
Pressure (altimeter): 30.04 inches Hg (1017.4 mb)
[Sea-level pressure: 1016.8 mb]
Winds: calm
Visibility: 10 or more miles (16+ km)
Ceiling: at least 12,000 feet AGL
Clouds: sky clear below 12,000 feet AGL
Weather: no significant weather observed at this time
Translated TAF for KLVK

There is no translated TAF available for this airport

Find All Airport Services Find A Hotel Find A Rental Car Find A Golf Course Find A Restaurant $100 Hamburger



FBO's on the Field
FBO Company Facility Photos Services Transportation Aviation Fuel Prices: Prices include tax
Catering Weather Repair Courtesy Rental Type 100LL JetA JetA+ MOGAS 8087
 
Livermore Municipal Airport

This FBO has not yet been rated
FS:Ascent
Last Updated: Jul-22
Login to update fuel prices
SS:
Contact Livermore Municipal AirportMore FBO Information
 
Add another FBO Facility Photos Catering Weather Repair Courtesy Rental Type 100LL JetA JetA+ MOGAS 8087
Services Transportation Aviation Fuel Prices: Prices include tax


GlobalAir.com Airport Resource Center model-print
model-print
model-print
model-print